Portada
METAR-TAF:

METAR-TAF

Aeroports :

Río Hato, Panamà

latitud: 08-22-33N, longitud: 080-07-40W, altitud: 32 m

Observació

L'informe es va fer fa 2 hores i 8 minuts, a les 16:00 UTC
Vent 6 kt del Nord
Temperatura 31°C
Humitat 59%
Pressió 1012 hPa
Visibilitat 10 km o més
Escasses núvols a una alçada de 3000 ft

METAR: MPSM 221600Z 35006KT(E) 9999 FEW030 31/22 Q1012

Hora: 13:08 (18:08 UTC)

Pronòstic

L'informe es va fer fa 1 hora i 8 minuts, a les 17:00 UTC
Pronòstic vàlid del 22 a les 18 UTC al 23 a les 24 UTC
Vent 8 kt del Nord/Nord-Oest
Visibilitat 10 km o més
Núvols disperses a una alçada de 2000 ft
Probabilitat 30% :
Temporalment
l' 22 a les 18 UTC al 22 a les 20 UTC
Vent 8 kt del Sud
Visibilitat: 7000 m
Núvols disperses a una alçada de 1500 ft, Cumulonimbus.
Núvols disperses a una alçada de 9000 ft
tempesta, pluja

TAF: MPSM 221700Z 2218/2324 34008KT 9999 SCT020 PROB30 TEMPO 2218/2220 18008KT 7000 TSRA SCT015CB SCT090

Observacions i pronòstics meteorològics de més de 4000 aeroports (METAR i TAF).

Les estacions disponibles són els punts grocs i vermells al mapa.

Posi el ratolí al punt desitjat per veure el nom de l'estació.

Feu clic per veure les observacions i els pronòstics meteorològics.

Per canviar el mapa: feu clic els botons verds amb una creu de color negre per apropar; al botó verd amb un guió per allunyar la imatge; o en les fletxes verdes per a mapes adjacents.


METAR-TAF: